createdAt,value
2022-12-24T00:01:20.937Z,98389.31
2022-12-24T00:03:48.554Z,98395.50
2022-12-24T00:06:25.057Z,98399.53
2022-12-24T00:08:53.135Z,98403.63
2022-12-24T00:11:21.131Z,98410.09
2022-12-24T00:13:49.693Z,98421.00
2022-12-24T00:16:17.058Z,98417.72
2022-12-24T00:18:46.558Z,98418.53
2022-12-24T00:21:15.871Z,98429.28
2022-12-24T00:23:43.881Z,98422.13
2022-12-24T00:26:12.459Z,98416.78
2022-12-24T00:28:40.442Z,98415.66
2022-12-24T00:31:14.957Z,98409.13
2022-12-24T00:33:42.697Z,98402.47
2022-12-24T00:36:10.315Z,98407.69
2022-12-24T00:38:38.172Z,98407.84
2022-12-24T00:41:24.935Z,98402.66
2022-12-24T00:44:06.122Z,98397.75
2022-12-24T00:46:35.007Z,98398.59
2022-12-24T00:49:03.876Z,98392.25
2022-12-24T00:51:32.147Z,98387.53
2022-12-24T00:54:00.060Z,98383.28
2022-12-24T00:56:27.942Z,98386.22
2022-12-24T00:58:55.534Z,98372.19
2022-12-24T01:01:23.914Z,98374.16
2022-12-24T01:03:51.761Z,98376.09
2022-12-24T01:06:21.946Z,98379.38
2022-12-24T01:08:52.535Z,98372.53
2022-12-24T01:11:20.236Z,98374.81
2022-12-24T01:13:47.671Z,98368.97
2022-12-24T01:16:21.025Z,98347.81
2022-12-24T01:18:48.854Z,98355.63
2022-12-24T01:21:16.765Z,98347.75
2022-12-24T01:23:44.511Z,98349.81
2022-12-24T01:26:12.747Z,98360.22
2022-12-24T01:28:41.223Z,98358.06
2022-12-24T01:31:12.603Z,98367.84
2022-12-24T01:33:40.496Z,98362.66
2022-12-24T01:36:08.408Z,98348.66
2022-12-24T01:38:36.712Z,98345.06
2022-12-24T01:41:26.456Z,98343.13
2022-12-24T01:43:53.832Z,98349.75
2022-12-24T01:46:32.240Z,98353.19
2022-12-24T01:49:06.667Z,98350.75
2022-12-24T01:51:46.808Z,98350.75
2022-12-24T01:54:33.242Z,98352.03
2022-12-24T01:57:10.173Z,98352.03
2022-12-24T01:59:41.104Z,98346.34
2022-12-24T02:02:09.459Z,98345.22
2022-12-24T02:05:01.023Z,98329.44
2022-12-24T02:07:29.965Z,98334.13
2022-12-24T02:10:01.424Z,98331.03
2022-12-24T02:12:42.024Z,98346.78
2022-12-24T02:15:13.552Z,98349.06
2022-12-24T02:17:53.136Z,98343.81
2022-12-24T02:20:45.482Z,98341.69
2022-12-24T02:23:50.524Z,98336.78
2022-12-24T02:26:38.636Z,98334.09
2022-12-24T02:29:46.165Z,98328.88
2022-12-24T02:32:33.227Z,98332.03
2022-12-24T02:35:15.811Z,98347.75
2022-12-24T02:38:01.227Z,98351.13
2022-12-24T02:40:38.260Z,98351.84
2022-12-24T02:43:16.538Z,98350.47
2022-12-24T02:45:56.900Z,98357.25
2022-12-24T02:48:29.136Z,98368.31
2022-12-24T02:51:08.228Z,98367.97
2022-12-24T02:53:37.355Z,98367.16
2022-12-24T02:56:34.461Z,98360.81
2022-12-24T02:59:39.930Z,98360.44
2022-12-24T03:02:46.967Z,98369.94
2022-12-24T03:05:35.426Z,98367.91
2022-12-24T03:08:11.240Z,98371.00
2022-12-24T03:11:06.727Z,98371.19
2022-12-24T03:13:34.716Z,98381.00
2022-12-24T03:16:07.278Z,98379.59
2022-12-24T03:18:41.202Z,98385.22
2022-12-24T03:21:26.306Z,98388.69
2022-12-24T03:23:54.596Z,98381.66
2022-12-24T03:26:23.148Z,98394.16
2022-12-24T03:28:50.602Z,98396.56
2022-12-24T03:31:21.241Z,98394.94
2022-12-24T03:33:49.437Z,98384.09
2022-12-24T03:36:17.648Z,98378.22
2022-12-24T03:38:45.069Z,98390.25
2022-12-24T03:41:12.477Z,98398.38
2022-12-24T03:43:39.895Z,98394.47
2022-12-24T03:46:08.660Z,98389.44
2022-12-24T03:48:36.931Z,98402.28
2022-12-24T03:51:04.994Z,98404.06
2022-12-24T03:53:32.411Z,98406.97
2022-12-24T03:55:59.890Z,98399.69
2022-12-24T03:58:27.303Z,98401.69
2022-12-24T04:00:54.800Z,98409.47
2022-12-24T04:03:22.363Z,98408.66
2022-12-24T04:06:05.668Z,98400.34
2022-12-24T04:08:33.993Z,98397.44
2022-12-24T04:11:07.737Z,98393.53
2022-12-24T04:13:37.891Z,98397.56
2022-12-24T04:16:11.627Z,98407.63
2022-12-24T04:18:40.756Z,98408.94
2022-12-24T04:21:09.510Z,98409.09
2022-12-24T04:23:41.603Z,98406.00
2022-12-24T04:26:12.866Z,98408.13
2022-12-24T04:28:42.165Z,98398.56
2022-12-24T04:31:14.610Z,98403.94
2022-12-24T04:33:42.920Z,98405.88
2022-12-24T04:36:14.570Z,98407.81
2022-12-24T04:38:45.801Z,98417.72
2022-12-24T04:41:23.182Z,98416.59
2022-12-24T04:43:54.503Z,98415.78
2022-12-24T04:46:26.028Z,98419.16
2022-12-24T04:48:55.160Z,98418.69
2022-12-24T04:51:23.853Z,98427.94
2022-12-24T04:53:52.116Z,98426.66
2022-12-24T04:56:25.058Z,98415.69
2022-12-24T04:58:53.149Z,98417.78
2022-12-24T05:01:27.636Z,98421.72
2022-12-24T05:03:56.447Z,98426.63
2022-12-24T05:06:29.823Z,98434.59
2022-12-24T05:08:59.240Z,98443.34
2022-12-24T05:11:27.456Z,98441.13
2022-12-24T05:13:55.075Z,98437.72
2022-12-24T05:16:24.004Z,98444.53
2022-12-24T05:18:54.071Z,98436.06
2022-12-24T05:21:24.277Z,98442.09
2022-12-24T05:24:11.682Z,98441.91
2022-12-24T05:26:48.902Z,98430.53
2022-12-24T05:29:17.010Z,98423.72
2022-12-24T05:31:45.685Z,98440.75
2022-12-24T05:34:15.713Z,98452.94
2022-12-24T05:36:44.191Z,98443.06
2022-12-24T05:39:16.294Z,98443.66
2022-12-24T05:41:46.627Z,98437.84
2022-12-24T05:44:16.197Z,98444.50
2022-12-24T05:46:44.212Z,98448.56
2022-12-24T05:49:12.319Z,98450.38
2022-12-24T05:51:42.544Z,98448.91
2022-12-24T05:54:10.705Z,98445.53
2022-12-24T05:56:38.238Z,98459.34
2022-12-24T05:59:05.743Z,98460.47
2022-12-24T06:01:33.209Z,98451.19
2022-12-24T06:04:00.665Z,98451.50
2022-12-24T06:06:29.212Z,98464.50
2022-12-24T06:08:56.796Z,98470.66
2022-12-24T06:11:27.530Z,98475.53
2022-12-24T06:13:55.635Z,98473.13
2022-12-24T06:16:25.649Z,98482.91
2022-12-24T06:18:54.604Z,98486.34
2022-12-24T06:21:22.097Z,98476.56
2022-12-24T06:23:49.455Z,98478.50
2022-12-24T06:26:21.044Z,98485.50
2022-12-24T06:28:50.793Z,98492.50
2022-12-24T06:31:21.890Z,98494.09
2022-12-24T06:33:50.471Z,98503.88
2022-12-24T06:36:23.492Z,98501.59
2022-12-24T06:38:52.166Z,98514.94
2022-12-24T06:41:21.466Z,98510.69
2022-12-24T06:43:52.090Z,98523.22
2022-12-24T06:46:21.021Z,98532.81
2022-12-24T06:48:48.839Z,98542.22
2022-12-24T06:51:19.810Z,98554.88
2022-12-24T06:53:50.794Z,98558.31
2022-12-24T06:56:20.612Z,98564.97
2022-12-24T06:58:48.354Z,98571.78
2022-12-24T07:01:19.404Z,98572.13
2022-12-24T07:03:48.254Z,98567.59
2022-12-24T07:06:24.904Z,98563.19
2022-12-24T07:08:53.129Z,98557.19
2022-12-24T07:11:21.789Z,98563.06
2022-12-24T07:13:49.425Z,98561.44
2022-12-24T07:16:17.829Z,98564.81
2022-12-24T07:18:45.732Z,98566.94
2022-12-24T07:21:13.149Z,98563.84
2022-12-24T07:23:40.621Z,98570.84
2022-12-24T07:26:08.692Z,98579.47
2022-12-24T07:28:36.144Z,98576.34
2022-12-24T07:31:03.859Z,98578.31
2022-12-24T07:33:31.661Z,98591.19
2022-12-24T07:36:06.013Z,98587.91
2022-12-24T07:38:34.931Z,98589.69
2022-12-24T07:41:02.819Z,98591.81
2022-12-24T07:43:30.317Z,98598.66
2022-12-24T07:45:58.297Z,98594.59
2022-12-24T07:48:28.485Z,98599.94
2022-12-24T07:50:57.712Z,98606.63
2022-12-24T07:53:27.990Z,98596.69
2022-12-24T07:55:55.971Z,98595.22
2022-12-24T07:58:24.375Z,98591.97
2022-12-24T08:00:59.963Z,98591.84
2022-12-24T08:03:28.091Z,98597.22
2022-12-24T08:05:55.736Z,98592.81
2022-12-24T08:08:23.461Z,98592.97
2022-12-24T08:10:51.512Z,98596.34
2022-12-24T08:13:19.281Z,98586.56
2022-12-24T08:15:46.771Z,98596.97
2022-12-24T08:18:14.156Z,98595.47
2022-12-24T08:20:41.941Z,98600.84
2022-12-24T08:23:09.805Z,98601.28
2022-12-24T08:25:37.589Z,98598.63
2022-12-24T08:28:05.892Z,98602.72
2022-12-24T08:30:33.884Z,98606.50
2022-12-24T08:33:01.543Z,98600.66
2022-12-24T08:35:29.244Z,98613.38
2022-12-24T08:37:56.929Z,98607.16
2022-12-24T08:40:24.406Z,98618.44
2022-12-24T08:42:51.993Z,98612.72
2022-12-24T08:45:19.833Z,98625.13
2022-12-24T08:47:48.131Z,98637.84
2022-12-24T08:50:15.700Z,98628.06
2022-12-24T08:52:43.142Z,98625.09
2022-12-24T08:55:10.539Z,98618.41
2022-12-24T08:57:38.357Z,98614.00
2022-12-24T09:00:07.641Z,98609.41
2022-12-24T09:02:36.394Z,98609.53
2022-12-24T09:05:04.557Z,98613.72
2022-12-24T09:07:31.977Z,98608.44
2022-12-24T09:09:59.408Z,98593.50
2022-12-24T09:12:26.790Z,98592.91
2022-12-24T09:14:59.534Z,98601.66
2022-12-24T09:17:28.779Z,98609.97
2022-12-24T09:19:56.188Z,98610.56
2022-12-24T09:22:23.619Z,98604.28
2022-12-24T09:24:53.332Z,98596.81
2022-12-24T09:27:20.797Z,98609.03
2022-12-24T09:29:48.291Z,98600.00
2022-12-24T09:32:15.784Z,98597.72
2022-12-24T09:34:43.199Z,98610.31
2022-12-24T09:37:10.646Z,98607.88
2022-12-24T09:39:38.190Z,98600.66
2022-12-24T09:42:29.379Z,98605.88
2022-12-24T09:45:04.135Z,98607.28
2022-12-24T09:47:49.663Z,98614.69
2022-12-24T09:50:32.666Z,98618.81
2022-12-24T09:53:19.417Z,98630.91
2022-12-24T09:55:54.518Z,98628.13
2022-12-24T09:58:39.332Z,98623.13
2022-12-24T10:01:07.102Z,98634.31
2022-12-24T10:03:34.623Z,98631.59
2022-12-24T10:06:32.371Z,98644.22
2022-12-24T10:09:50.904Z,98627.63
2022-12-24T10:12:50.135Z,98624.50
2022-12-24T10:15:46.052Z,98622.41
2022-12-24T10:18:27.718Z,98632.41
2022-12-24T10:21:43.418Z,98640.19
2022-12-24T10:24:20.020Z,98641.19
2022-12-24T10:27:06.624Z,98642.72
2022-12-24T10:29:43.701Z,98636.44
2022-12-24T10:32:17.879Z,98650.50
2022-12-24T10:35:18.821Z,98646.38
2022-12-24T10:37:53.547Z,98648.16
2022-12-24T10:40:29.733Z,98640.13
2022-12-24T10:42:57.676Z,98637.03
2022-12-24T10:45:39.240Z,98637.47
2022-12-24T10:48:16.868Z,98627.44
2022-12-24T10:50:58.347Z,98635.38
2022-12-24T10:53:40.411Z,98628.53
2022-12-24T10:56:13.060Z,98631.38
2022-12-24T10:58:46.709Z,98630.56
2022-12-24T11:01:14.626Z,98634.03
2022-12-24T11:03:42.764Z,98632.97
2022-12-24T11:06:15.404Z,98632.81
2022-12-24T11:08:45.134Z,98637.09
2022-12-24T11:11:23.486Z,98644.06
2022-12-24T11:13:50.805Z,98635.56
2022-12-24T11:16:28.391Z,98639.31
2022-12-24T11:18:59.706Z,98628.84
2022-12-24T11:21:38.148Z,98631.44
2022-12-24T11:24:12.912Z,98638.31
2022-12-24T11:26:43.996Z,98645.91
2022-12-24T11:29:27.792Z,98654.53
2022-12-24T11:32:21.922Z,98656.69
2022-12-24T11:34:49.719Z,98639.81
2022-12-24T11:37:22.928Z,98657.97
2022-12-24T11:39:54.516Z,98653.53
2022-12-24T11:42:36.806Z,98660.97
2022-12-24T11:45:27.244Z,98653.25
2022-12-24T11:47:55.820Z,98665.44
2022-12-24T11:50:33.071Z,98667.44
2022-12-24T11:53:03.280Z,98667.81
2022-12-24T11:55:52.075Z,98681.56
2022-12-24T11:58:52.334Z,98689.44
2022-12-24T12:02:17.095Z,98695.56
2022-12-24T12:04:51.621Z,98702.81
2022-12-24T12:07:26.760Z,98693.78
2022-12-24T12:10:04.455Z,98695.34
2022-12-24T12:12:40.073Z,98693.88
2022-12-24T12:15:34.552Z,98685.44
2022-12-24T12:18:09.844Z,98669.94
2022-12-24T12:20:50.232Z,98665.91
2022-12-24T12:23:40.369Z,98688.06
2022-12-24T12:26:16.143Z,98695.63
2022-12-24T12:28:53.560Z,98695.56
2022-12-24T12:31:36.600Z,98708.25
2022-12-24T12:34:15.476Z,98709.84
2022-12-24T12:36:49.740Z,98707.72
2022-12-24T12:39:17.845Z,98710.22
2022-12-24T12:42:18.563Z,98726.19
2022-12-24T12:44:52.865Z,98724.03
2022-12-24T12:48:17.103Z,98732.63
2022-12-24T12:50:51.773Z,98750.41
2022-12-24T12:54:06.036Z,98755.81
2022-12-24T12:56:36.263Z,98770.78
2022-12-24T12:59:27.959Z,98767.13
2022-12-24T13:02:17.732Z,98775.72
2022-12-24T13:05:06.101Z,98774.56
2022-12-24T13:08:07.527Z,98775.38
2022-12-24T13:10:56.153Z,98765.47
2022-12-24T13:14:11.279Z,98764.84
2022-12-24T13:17:03.133Z,98762.75
2022-12-24T13:20:15.015Z,98783.53
2022-12-24T13:22:53.475Z,98791.28
2022-12-24T13:25:27.518Z,98777.41
2022-12-24T13:27:54.904Z,98778.09
2022-12-24T13:30:40.449Z,98779.72
2022-12-24T13:33:14.242Z,98779.91
2022-12-24T13:36:05.519Z,98766.56
2022-12-24T13:39:03.619Z,98772.53
2022-12-24T13:41:40.457Z,98775.97
2022-12-24T13:44:13.433Z,98777.69
2022-12-24T13:47:15.648Z,98777.94
2022-12-24T13:49:48.446Z,98780.72
2022-12-24T13:52:27.081Z,98779.56
2022-12-24T13:54:54.409Z,98776.16
2022-12-24T13:57:44.795Z,98779.91
2022-12-24T14:00:21.260Z,98786.22
2022-12-24T14:03:09.547Z,98783.66
2022-12-24T14:05:42.989Z,98801.19
2022-12-24T14:08:22.767Z,98816.75
2022-12-24T14:11:08.257Z,98820.84
2022-12-24T14:13:38.376Z,98827.75
2022-12-24T14:16:28.654Z,98832.50
2022-12-24T14:19:10.074Z,98838.69
2022-12-24T14:22:12.317Z,98827.63
2022-12-24T14:24:45.419Z,98828.75
2022-12-24T14:27:24.388Z,98837.16
2022-12-24T14:30:04.085Z,98838.91
2022-12-24T14:32:41.390Z,98852.16
2022-12-24T14:35:24.342Z,98840.59
2022-12-24T14:37:58.872Z,98850.22
2022-12-24T14:40:30.564Z,98849.13
2022-12-24T14:44:01.678Z,98852.03
2022-12-24T14:46:58.029Z,98862.38
2022-12-24T14:49:57.547Z,98858.31
2022-12-24T14:53:06.228Z,98855.88
2022-12-24T14:55:44.549Z,98868.25
2022-12-24T14:58:36.696Z,98870.56
2022-12-24T15:01:25.189Z,98881.38
2022-12-24T15:04:09.005Z,98891.13
2022-12-24T15:06:50.164Z,98885.78
2022-12-24T15:09:23.334Z,98916.28
2022-12-24T15:11:56.205Z,98922.97
2022-12-24T15:14:26.577Z,98927.38
2022-12-24T15:17:07.500Z,98921.16
2022-12-24T15:19:42.341Z,98917.91
2022-12-24T15:22:23.662Z,98914.63
2022-12-24T15:24:51.500Z,98915.63
2022-12-24T15:27:25.782Z,98913.00
2022-12-24T15:29:57.999Z,98922.81
2022-12-24T15:32:25.619Z,98917.09
2022-12-24T15:34:55.648Z,98912.69
2022-12-24T15:37:26.871Z,98908.63
2022-12-24T15:40:10.157Z,98919.09
2022-12-24T15:42:42.760Z,98919.56
2022-12-24T15:45:21.719Z,98915.66
2022-12-24T15:48:00.549Z,98909.81
2022-12-24T15:50:33.657Z,98908.81
2022-12-24T15:53:19.595Z,98909.13
2022-12-24T15:56:33.674Z,98917.63
2022-12-24T15:59:17.757Z,98924.16
2022-12-24T16:01:47.806Z,98921.41
2022-12-24T16:04:35.456Z,98914.56
2022-12-24T16:07:07.928Z,98916.34
2022-12-24T16:09:35.230Z,98925.00
2022-12-24T16:12:04.005Z,98921.56
2022-12-24T16:14:33.662Z,98922.22
2022-12-24T16:17:01.288Z,98908.84
2022-12-24T16:19:39.680Z,98910.47
2022-12-24T16:22:26.451Z,98913.88
2022-12-24T16:24:55.655Z,98903.28
2022-12-24T16:27:23.436Z,98902.97
2022-12-24T16:29:50.896Z,98910.47
2022-12-24T16:32:33.940Z,98919.63
2022-12-24T16:35:05.713Z,98909.03
2022-12-24T16:37:33.145Z,98899.88
2022-12-24T16:40:01.150Z,98904.59
2022-12-24T16:42:47.187Z,98906.41
2022-12-24T16:45:14.541Z,98921.25
2022-12-24T16:47:43.262Z,98932.16
2022-12-24T16:50:16.464Z,98930.38
2022-12-24T16:52:44.491Z,98932.50
2022-12-24T16:55:15.126Z,98940.50
2022-12-24T16:57:43.892Z,98937.25
2022-12-24T17:00:21.597Z,98938.53
2022-12-24T17:02:49.838Z,98936.91
2022-12-24T17:05:17.894Z,98947.16
2022-12-24T17:07:45.428Z,98947.97
2022-12-24T17:10:14.550Z,98945.25
2022-12-24T17:12:44.068Z,98941.94
2022-12-24T17:15:11.890Z,98944.56
2022-12-24T17:17:39.391Z,98951.56
2022-12-24T17:20:07.905Z,98957.59
2022-12-24T17:22:37.102Z,98954.81
2022-12-24T17:25:06.333Z,98961.69
2022-12-24T17:27:33.966Z,98970.16
2022-12-24T17:30:01.351Z,98968.38
2022-12-24T17:32:28.790Z,98976.03
2022-12-24T17:34:56.125Z,98988.75
2022-12-24T17:37:23.524Z,98996.91
2022-12-24T17:39:50.943Z,99000.84
2022-12-24T17:42:18.714Z,99017.94
2022-12-24T17:44:46.137Z,99036.81
2022-12-24T17:47:13.666Z,99040.25
2022-12-24T17:49:41.064Z,99037.34
2022-12-24T17:52:08.589Z,99041.72
2022-12-24T17:54:36.146Z,99058.84
2022-12-24T17:57:03.673Z,99063.88
2022-12-24T17:59:31.057Z,99071.53
2022-12-24T18:01:59.040Z,99076.75
2022-12-24T18:04:26.646Z,99069.41
2022-12-24T18:07:01.789Z,99078.22
2022-12-24T18:09:30.766Z,99093.03
2022-12-24T18:11:58.349Z,99090.59
2022-12-24T18:14:25.750Z,99108.69
2022-12-24T18:16:53.362Z,99114.91
2022-12-24T18:19:20.739Z,99111.59
2022-12-24T18:21:48.245Z,99118.78
2022-12-24T18:24:15.859Z,99113.56
2022-12-24T18:26:45.681Z,99115.34
2022-12-24T18:29:13.403Z,99122.38
2022-12-24T18:31:41.638Z,99121.38
2022-12-24T18:34:13.275Z,99120.88
2022-12-24T18:36:41.216Z,99130.81
2022-12-24T18:39:08.653Z,99131.47
2022-12-24T18:41:36.277Z,99137.34
2022-12-24T18:44:04.205Z,99136.69
2022-12-24T18:46:33.382Z,99137.50
2022-12-24T18:49:01.919Z,99134.41
2022-12-24T18:51:35.405Z,99141.72
2022-12-24T18:54:05.795Z,99144.47
2022-12-24T18:56:33.391Z,99140.34
2022-12-24T18:59:02.778Z,99140.00
2022-12-24T19:01:34.957Z,99147.34
2022-12-24T19:04:03.297Z,99143.25
2022-12-24T19:06:31.327Z,99150.25
2022-12-24T19:09:00.736Z,99150.06
2022-12-24T19:11:33.601Z,99150.91
2022-12-24T19:14:03.512Z,99151.88
2022-12-24T19:16:36.926Z,99152.84
2022-12-24T19:19:09.539Z,99150.41
2022-12-24T19:21:39.233Z,99147.34
2022-12-24T19:24:10.425Z,99144.56
2022-12-24T19:26:37.972Z,99154.03
2022-12-24T19:29:05.338Z,99154.34
2022-12-24T19:31:32.781Z,99155.56
2022-12-24T19:34:00.289Z,99156.50
2022-12-24T19:36:30.731Z,99146.03
2022-12-24T19:38:59.356Z,99153.47
2022-12-24T19:41:29.631Z,99151.66
2022-12-24T19:44:00.567Z,99154.53
2022-12-24T19:46:34.036Z,99167.72
2022-12-24T19:49:05.945Z,99159.47
2022-12-24T19:51:34.760Z,99163.25
2022-12-24T19:54:02.614Z,99173.06
2022-12-24T19:56:32.890Z,99172.06
2022-12-24T19:59:02.016Z,99170.81
2022-12-24T20:01:32.034Z,99168.84
2022-12-24T20:04:02.908Z,99160.06
2022-12-24T20:06:33.964Z,99162.22
2022-12-24T20:09:05.922Z,99166.31
2022-12-24T20:11:34.654Z,99172.50
2022-12-24T20:14:04.215Z,99162.22
2022-12-24T20:16:32.415Z,99157.81
2022-12-24T20:19:03.590Z,99156.19
2022-12-24T20:21:31.790Z,99161.72
2022-12-24T20:23:59.314Z,99155.81
2022-12-24T20:26:28.838Z,99163.63
2022-12-24T20:28:56.716Z,99159.72
2022-12-24T20:31:28.714Z,99159.66
2022-12-24T20:34:03.165Z,99166.13
2022-12-24T20:36:32.115Z,99162.69
2022-12-24T20:39:00.255Z,99165.91
2022-12-24T20:41:30.633Z,99156.59
2022-12-24T20:44:00.528Z,99169.47
2022-12-24T20:46:33.595Z,99170.78
2022-12-24T20:49:01.192Z,99174.44
2022-12-24T20:51:29.172Z,99180.31
2022-12-24T20:54:00.825Z,99174.13
2022-12-24T20:56:31.044Z,99175.25
2022-12-24T20:59:01.512Z,99175.09
2022-12-24T21:01:30.287Z,99184.00
2022-12-24T21:04:04.699Z,99185.00
2022-12-24T21:06:33.823Z,99192.00
2022-12-24T21:09:01.746Z,99195.72
2022-12-24T21:11:48.148Z,99195.72
2022-12-24T21:14:22.746Z,99196.53
2022-12-24T21:16:52.255Z,99198.63
2022-12-24T21:19:24.480Z,99204.00
2022-12-24T21:21:52.045Z,99207.03
2022-12-24T21:24:19.559Z,99202.28
2022-12-24T21:26:49.003Z,99207.81
2022-12-24T21:29:16.656Z,99205.50
2022-12-24T21:31:44.177Z,99204.03
2022-12-24T21:34:11.557Z,99207.56
2022-12-24T21:36:39.195Z,99204.47
2022-12-24T21:39:06.569Z,99201.69
2022-12-24T21:41:34.103Z,99201.16
2022-12-24T21:44:02.267Z,99194.34
2022-12-24T21:46:29.892Z,99191.22
2022-12-24T21:49:16.174Z,99194.94
2022-12-24T21:51:46.049Z,99196.06
2022-12-24T21:54:32.163Z,99187.88
2022-12-24T21:57:22.523Z,99188.03
2022-12-24T21:59:56.263Z,99192.78
2022-12-24T22:02:28.417Z,99187.78
2022-12-24T22:04:56.092Z,99194.84
2022-12-24T22:07:45.943Z,99197.31
2022-12-24T22:10:33.302Z,99200.41
2022-12-24T22:13:03.632Z,99190.97
2022-12-24T22:15:31.185Z,99204.53
2022-12-24T22:17:58.735Z,99197.16
2022-12-24T22:20:26.332Z,99201.00
2022-12-24T22:22:53.982Z,99205.81
2022-12-24T22:25:21.401Z,99200.47
2022-12-24T22:27:49.112Z,99205.44
2022-12-24T22:30:16.592Z,99210.00
2022-12-24T22:32:44.338Z,99215.84
2022-12-24T22:35:11.904Z,99218.69
2022-12-24T22:37:39.517Z,99220.84
2022-12-24T22:40:09.608Z,99214.56
2022-12-24T22:42:37.741Z,99220.41
2022-12-24T22:45:06.421Z,99219.31
2022-12-24T22:47:34.417Z,99220.56
2022-12-24T22:50:01.829Z,99218.25
2022-12-24T22:52:36.646Z,99210.59
2022-12-24T22:55:04.754Z,99214.41
2022-12-24T22:57:32.200Z,99214.41
2022-12-24T22:59:59.694Z,99217.66
2022-12-24T23:02:28.685Z,99213.81
2022-12-24T23:04:58.490Z,99215.97
2022-12-24T23:07:28.762Z,99219.63
2022-12-24T23:09:57.173Z,99217.22
2022-12-24T23:12:44.487Z,99218.22
2022-12-24T23:15:12.158Z,99224.22
2022-12-24T23:17:39.590Z,99226.41
2022-12-24T23:20:07.910Z,99227.38
2022-12-24T23:22:35.325Z,99229.69
2022-12-24T23:25:02.723Z,99235.25
2022-12-24T23:27:30.162Z,99235.78
2022-12-24T23:29:57.745Z,99237.28
2022-12-24T23:32:25.260Z,99244.94
2022-12-24T23:34:52.661Z,99243.81
2022-12-24T23:37:20.076Z,99240.91
2022-12-24T23:39:47.521Z,99246.28
2022-12-24T23:42:14.876Z,99234.19
2022-12-24T23:44:42.356Z,99233.38
2022-12-24T23:47:09.800Z,99236.69
2022-12-24T23:49:37.230Z,99243.53
2022-12-24T23:52:04.913Z,99235.16
2022-12-24T23:54:32.298Z,99235.50
2022-12-24T23:56:59.689Z,99234.50
2022-12-24T23:59:27.210Z,99238.75
